createdAt,value
2019-03-15T00:01:28.207Z,5.37
2019-03-15T00:06:34.196Z,5.26
2019-03-15T00:11:39.964Z,5.34
2019-03-15T00:16:45.836Z,5.36
2019-03-15T00:21:51.724Z,5.21
2019-03-15T00:26:57.724Z,5.28
2019-03-15T00:32:04.683Z,5.31
2019-03-15T00:37:10.744Z,5.22
2019-03-15T00:42:17.969Z,5.16
2019-03-15T00:47:23.921Z,5.26
2019-03-15T00:52:29.784Z,5.48
2019-03-15T00:57:35.548Z,5.50
2019-03-15T01:02:44.094Z,5.37
2019-03-15T01:07:49.881Z,5.30
2019-03-15T01:12:55.735Z,5.46
2019-03-15T01:18:01.495Z,5.36
2019-03-15T01:23:07.386Z,5.44
2019-03-15T01:28:13.338Z,5.47
2019-03-15T01:33:19.417Z,5.55
2019-03-15T01:38:26.207Z,5.62
2019-03-15T01:43:32.083Z,5.60
2019-03-15T01:48:38.874Z,5.65
2019-03-15T01:53:44.749Z,5.76
2019-03-15T01:58:50.618Z,5.85
2019-03-15T02:03:56.480Z,5.87
2019-03-15T02:09:02.354Z,5.94
2019-03-15T02:14:09.262Z,5.99
2019-03-15T02:19:15.130Z,6.09
2019-03-15T02:24:20.893Z,6.07
2019-03-15T02:29:26.773Z,6.10
2019-03-15T02:34:32.839Z,6.10
2019-03-15T02:39:38.714Z,6.11
2019-03-15T02:44:44.503Z,6.09
2019-03-15T02:49:50.359Z,6.19
2019-03-15T02:54:56.124Z,6.09
2019-03-15T03:00:02.039Z,6.12
2019-03-15T03:05:10.425Z,6.15
2019-03-15T03:10:16.302Z,6.23
2019-03-15T03:15:22.174Z,6.31
2019-03-15T03:20:28.220Z,6.25
2019-03-15T03:25:34.114Z,6.32
2019-03-15T03:30:40.204Z,6.31
2019-03-15T03:35:45.960Z,6.38
2019-03-15T03:40:52.036Z,6.44
2019-03-15T03:45:57.863Z,6.56
2019-03-15T03:51:03.780Z,6.43
2019-03-15T03:56:09.556Z,6.53
2019-03-15T04:01:15.624Z,6.41
2019-03-15T04:06:21.494Z,6.35
2019-03-15T04:11:27.373Z,6.37
2019-03-15T04:16:33.246Z,6.20
2019-03-15T04:21:39.118Z,6.17
2019-03-15T04:26:44.990Z,6.25
2019-03-15T04:31:51.019Z,6.21
2019-03-15T04:36:56.921Z,6.07
2019-03-15T04:42:02.893Z,5.89
2019-03-15T04:47:08.769Z,5.93
2019-03-15T04:52:14.950Z,5.92
2019-03-15T04:57:20.778Z,5.96
2019-03-15T05:02:26.684Z,5.91
2019-03-15T05:07:33.635Z,5.86
2019-03-15T05:12:39.660Z,5.95
2019-03-15T05:17:46.098Z,5.94
2019-03-15T05:22:52.022Z,5.96
2019-03-15T05:27:57.890Z,5.82
2019-03-15T05:33:03.863Z,5.91
2019-03-15T05:38:09.581Z,5.80
2019-03-15T05:43:15.641Z,5.70
2019-03-15T05:48:21.492Z,5.87
2019-03-15T05:53:27.454Z,5.89
2019-03-15T05:58:33.481Z,5.84
2019-03-15T06:03:48.314Z,5.77
2019-03-15T06:08:46.866Z,5.92
2019-03-15T06:13:52.783Z,5.93
2019-03-15T06:18:58.516Z,5.91
2019-03-15T06:24:04.418Z,6.29
2019-03-15T06:29:10.406Z,6.04
2019-03-15T06:34:16.275Z,6.10
2019-03-15T06:39:22.239Z,6.01
2019-03-15T06:44:28.173Z,5.96
2019-03-15T06:49:34.205Z,6.04
2019-03-15T06:54:40.055Z,6.02
2019-03-15T06:59:46.423Z,6.01
2019-03-15T07:04:52.208Z,6.07
2019-03-15T07:09:58.079Z,6.07
2019-03-15T07:15:08.341Z,5.93
2019-03-15T07:20:16.112Z,5.98
2019-03-15T07:25:21.986Z,6.13
2019-03-15T07:30:27.809Z,5.95
2019-03-15T07:35:33.739Z,5.78
2019-03-15T07:40:39.659Z,5.97
2019-03-15T07:45:45.632Z,6.09
2019-03-15T07:50:51.606Z,6.09
2019-03-15T07:55:57.427Z,6.24
2019-03-15T08:01:03.346Z,6.42
2019-03-15T08:06:10.115Z,6.28
2019-03-15T08:11:15.850Z,6.45
2019-03-15T08:16:21.781Z,6.41
2019-03-15T08:21:27.605Z,6.82
2019-03-15T08:26:33.547Z,7.00
2019-03-15T08:31:39.397Z,6.95
2019-03-15T08:36:45.224Z,6.93
2019-03-15T08:41:51.040Z,6.86
2019-03-15T08:46:56.898Z,7.04
2019-03-15T08:52:04.091Z,6.95
2019-03-15T08:57:10.174Z,7.14
2019-03-15T09:02:16.359Z,7.27
2019-03-15T09:07:22.233Z,7.25
2019-03-15T09:12:28.139Z,7.43
2019-03-15T09:17:34.074Z,7.55
2019-03-15T09:22:40.040Z,7.48
2019-03-15T09:27:46.084Z,7.50
2019-03-15T09:32:51.942Z,7.57
2019-03-15T09:37:57.753Z,7.80
2019-03-15T09:43:04.138Z,7.80
2019-03-15T09:48:10.059Z,7.95
2019-03-15T09:53:16.814Z,7.83
2019-03-15T09:58:22.613Z,7.83
2019-03-15T10:03:28.571Z,7.86
2019-03-15T10:08:35.479Z,7.72
2019-03-15T10:13:41.423Z,7.67
2019-03-15T10:18:50.437Z,7.69
2019-03-15T10:23:54.926Z,7.66
2019-03-15T10:29:14.224Z,7.66
2019-03-15T10:34:08.394Z,8.00
2019-03-15T10:39:14.268Z,8.12
2019-03-15T10:44:20.137Z,7.99
2019-03-15T10:49:26.006Z,8.09
2019-03-15T10:54:31.815Z,8.56
2019-03-15T10:59:37.747Z,8.79
2019-03-15T11:04:43.531Z,9.01
2019-03-15T11:09:49.383Z,9.01
2019-03-15T11:14:55.261Z,8.79
2019-03-15T11:20:01.127Z,8.76
2019-03-15T11:25:08.949Z,8.74
2019-03-15T11:30:15.232Z,8.94
2019-03-15T11:35:21.740Z,8.94
2019-03-15T11:40:27.592Z,9.06
2019-03-15T11:45:33.348Z,9.28
2019-03-15T11:50:39.319Z,9.25
2019-03-15T11:55:45.361Z,9.29
2019-03-15T12:00:51.166Z,9.67
2019-03-15T12:05:58.671Z,9.47
2019-03-15T12:11:04.543Z,9.53
2019-03-15T12:16:10.416Z,9.38
2019-03-15T12:21:16.187Z,9.52
2019-03-15T12:26:25.854Z,9.63
2019-03-15T12:31:37.168Z,9.80
2019-03-15T12:36:42.232Z,10.04
2019-03-15T12:41:53.498Z,10.04
2019-03-15T12:46:58.459Z,10.23
2019-03-15T12:52:04.231Z,9.81
2019-03-15T12:57:10.287Z,9.73
2019-03-15T13:02:20.185Z,9.87
2019-03-15T13:07:24.894Z,9.75
2019-03-15T13:12:30.908Z,10.09
2019-03-15T13:17:36.784Z,9.82
2019-03-15T13:22:42.756Z,9.93
2019-03-15T13:27:48.619Z,9.92
2019-03-15T13:32:54.666Z,9.84
2019-03-15T13:38:00.530Z,9.94
2019-03-15T13:43:06.445Z,10.06
2019-03-15T13:48:12.287Z,9.97
2019-03-15T13:53:19.918Z,9.96
2019-03-15T13:58:25.790Z,9.72
2019-03-15T14:03:31.567Z,9.84
2019-03-15T14:08:37.433Z,9.71
2019-03-15T14:13:43.438Z,9.81
2019-03-15T14:18:49.448Z,9.91
2019-03-15T14:23:55.320Z,9.55
2019-03-15T14:29:02.533Z,9.61
2019-03-15T14:34:08.474Z,9.70
2019-03-15T14:39:14.315Z,9.68
2019-03-15T14:44:20.470Z,9.50
2019-03-15T14:49:26.362Z,9.31
2019-03-15T14:54:32.292Z,8.94
2019-03-15T14:59:38.253Z,8.77
2019-03-15T15:04:44.438Z,8.58
2019-03-15T15:09:50.309Z,8.59
2019-03-15T15:14:57.550Z,8.34
2019-03-15T15:20:03.438Z,8.18
2019-03-15T15:25:14.961Z,7.90
2019-03-15T15:30:21.099Z,7.90
2019-03-15T15:35:27.343Z,7.59
2019-03-15T15:40:33.233Z,7.74
2019-03-15T15:45:39.093Z,7.60
2019-03-15T15:50:44.985Z,7.52
2019-03-15T15:55:50.846Z,7.39
2019-03-15T16:00:56.933Z,7.45
2019-03-15T16:06:03.004Z,7.50
2019-03-15T16:11:08.855Z,7.43
2019-03-15T16:16:14.861Z,7.48
2019-03-15T16:21:20.830Z,7.49
2019-03-15T16:26:26.883Z,7.49
2019-03-15T16:31:32.879Z,7.53
2019-03-15T16:36:38.724Z,7.63
2019-03-15T16:41:44.629Z,7.73
2019-03-15T16:46:50.473Z,7.73
2019-03-15T16:51:56.498Z,7.79
2019-03-15T16:57:02.446Z,7.78
2019-03-15T17:02:08.286Z,7.84
2019-03-15T17:07:14.490Z,7.97
2019-03-15T17:12:20.519Z,7.97
2019-03-15T17:17:26.455Z,7.98
2019-03-15T17:22:32.317Z,8.13
2019-03-15T17:27:38.492Z,8.22
2019-03-15T17:32:44.684Z,8.23
2019-03-15T17:37:50.507Z,8.22
2019-03-15T17:42:56.322Z,8.37
2019-03-15T17:48:02.340Z,8.47
2019-03-15T17:53:09.251Z,8.44
2019-03-15T17:58:15.167Z,8.16
2019-03-15T18:03:22.042Z,8.18
2019-03-15T18:08:27.911Z,8.43
2019-03-15T18:13:33.866Z,8.29
2019-03-15T18:18:39.728Z,8.28
2019-03-15T18:23:45.612Z,8.32
2019-03-15T18:28:51.431Z,8.25
2019-03-15T18:33:57.350Z,8.22
2019-03-15T18:39:04.337Z,8.22
2019-03-15T18:44:10.259Z,8.20
2019-03-15T18:49:18.545Z,8.09
2019-03-15T18:54:23.493Z,7.98
2019-03-15T18:59:39.459Z,7.96
2019-03-15T19:04:37.080Z,7.85
2019-03-15T19:09:42.845Z,7.76
2019-03-15T19:14:48.757Z,7.76
2019-03-15T19:19:54.586Z,7.72
2019-03-15T19:25:00.464Z,7.66
2019-03-15T19:30:09.332Z,7.65
2019-03-15T19:35:15.207Z,7.70
2019-03-15T19:40:21.443Z,7.66
2019-03-15T19:45:27.569Z,7.58
2019-03-15T19:50:33.528Z,7.58
2019-03-15T19:55:39.543Z,7.60
2019-03-15T20:00:45.449Z,7.68
2019-03-15T20:05:51.332Z,7.69
2019-03-15T20:10:57.325Z,7.70
2019-03-15T20:16:03.383Z,7.70
2019-03-15T20:21:09.258Z,7.59
2019-03-15T20:26:15.813Z,7.53
2019-03-15T20:31:21.759Z,7.61
2019-03-15T20:36:27.675Z,7.57
2019-03-15T20:41:33.833Z,7.51
2019-03-15T20:46:39.733Z,7.50
2019-03-15T20:51:45.865Z,7.46
2019-03-15T20:56:51.772Z,7.60
2019-03-15T21:01:57.862Z,7.57
2019-03-15T21:07:04.750Z,7.65
2019-03-15T21:12:10.733Z,7.65
2019-03-15T21:17:16.597Z,7.63
2019-03-15T21:22:22.512Z,7.60
2019-03-15T21:27:28.444Z,7.57
2019-03-15T21:32:34.538Z,7.57
2019-03-15T21:37:40.695Z,7.62
2019-03-15T21:42:46.594Z,7.53
2019-03-15T21:47:54.185Z,7.57
2019-03-15T21:52:59.959Z,7.47
2019-03-15T21:58:06.975Z,7.47
2019-03-15T22:03:13.747Z,7.50
2019-03-15T22:08:19.617Z,7.33
2019-03-15T22:13:25.602Z,7.33
2019-03-15T22:18:32.570Z,7.32
2019-03-15T22:23:38.461Z,7.22
2019-03-15T22:28:44.232Z,7.02
2019-03-15T22:33:50.319Z,7.04
2019-03-15T22:38:57.303Z,6.94
2019-03-15T22:44:03.779Z,6.94
2019-03-15T22:49:09.908Z,6.80
2019-03-15T22:54:15.738Z,6.80
2019-03-15T22:59:21.887Z,6.62
2019-03-15T23:04:27.783Z,6.55
2019-03-15T23:09:33.667Z,6.55
2019-03-15T23:14:39.727Z,6.44
2019-03-15T23:19:46.728Z,6.55
2019-03-15T23:24:52.726Z,6.63
2019-03-15T23:29:58.564Z,6.49
2019-03-15T23:35:05.054Z,6.60
2019-03-15T23:40:13.256Z,6.60
2019-03-15T23:45:19.033Z,6.58
2019-03-15T23:50:24.916Z,6.58
2019-03-15T23:55:30.779Z,6.63
